sensor_id;sensor_type;location;lat;lon;timestamp;P1;durP1;ratioP1;P2;durP2;ratioP2
78778;SDS011;68121;52.404;5.318;2023-03-01T00:02:25;13.65;;;7.82;;
78778;SDS011;68121;52.404;5.318;2023-03-01T00:04:51;13.32;;;6.82;;
78778;SDS011;68121;52.404;5.318;2023-03-01T00:07:17;11.45;;;7.18;;
78778;SDS011;68121;52.404;5.318;2023-03-01T00:09:43;14.00;;;8.65;;
78778;SDS011;68121;52.404;5.318;2023-03-01T00:12:11;13.10;;;7.72;;
78778;SDS011;68121;52.404;5.318;2023-03-01T00:14:37;11.50;;;7.60;;
78778;SDS011;68121;52.404;5.318;2023-03-01T00:17:03;20.73;;;8.15;;
78778;SDS011;68121;52.404;5.318;2023-03-01T00:19:29;11.88;;;7.88;;
78778;SDS011;68121;52.404;5.318;2023-03-01T00:21:55;13.77;;;8.25;;
78778;SDS011;68121;52.404;5.318;2023-03-01T00:24:21;13.10;;;8.38;;
78778;SDS011;68121;52.404;5.318;2023-03-01T00:26:47;13.20;;;7.70;;
78778;SDS011;68121;52.404;5.318;2023-03-01T00:29:13;12.48;;;7.93;;
78778;SDS011;68121;52.404;5.318;2023-03-01T00:31:39;12.85;;;7.65;;
78778;SDS011;68121;52.404;5.318;2023-03-01T00:34:06;11.25;;;7.35;;
78778;SDS011;68121;52.404;5.318;2023-03-01T00:36:33;15.57;;;8.13;;
78778;SDS011;68121;52.404;5.318;2023-03-01T00:39:02;13.32;;;7.90;;
78778;SDS011;68121;52.404;5.318;2023-03-01T00:41:29;11.45;;;7.70;;
78778;SDS011;68121;52.404;5.318;2023-03-01T00:43:55;11.23;;;7.25;;
78778;SDS011;68121;52.404;5.318;2023-03-01T00:46:24;16.48;;;7.97;;
78778;SDS011;68121;52.404;5.318;2023-03-01T00:48:51;12.23;;;7.85;;
78778;SDS011;68121;52.404;5.318;2023-03-01T00:51:19;13.35;;;7.70;;
78778;SDS011;68121;52.404;5.318;2023-03-01T00:53:50;11.68;;;6.93;;
78778;SDS011;68121;52.404;5.318;2023-03-01T00:56:22;11.25;;;7.38;;
78778;SDS011;68121;52.404;5.318;2023-03-01T00:58:48;11.05;;;6.32;;
78778;SDS011;68121;52.404;5.318;2023-03-01T01:01:16;13.10;;;7.18;;
78778;SDS011;68121;52.404;5.318;2023-03-01T01:04:21;10.00;;;7.32;;
78778;SDS011;68121;52.404;5.318;2023-03-01T01:06:41;12.65;;;7.28;;
78778;SDS011;68121;52.404;5.318;2023-03-01T01:09:10;11.88;;;7.45;;
78778;SDS011;68121;52.404;5.318;2023-03-01T01:11:43;10.38;;;7.30;;
78778;SDS011;68121;52.404;5.318;2023-03-01T01:14:10;12.43;;;7.10;;
78778;SDS011;68121;52.404;5.318;2023-03-01T01:16:36;11.05;;;7.55;;
78778;SDS011;68121;52.404;5.318;2023-03-01T01:19:02;11.63;;;7.68;;
78778;SDS011;68121;52.404;5.318;2023-03-01T01:21:28;13.60;;;7.47;;
78778;SDS011;68121;52.404;5.318;2023-03-01T01:23:54;10.95;;;6.63;;
78778;SDS011;68121;52.404;5.318;2023-03-01T01:26:25;13.15;;;8.00;;
78778;SDS011;68121;52.404;5.318;2023-03-01T01:28:53;11.95;;;7.35;;
78778;SDS011;68121;52.404;5.318;2023-03-01T01:31:19;10.70;;;6.85;;
78778;SDS011;68121;52.404;5.318;2023-03-01T01:33:49;12.02;;;6.80;;
78778;SDS011;68121;52.404;5.318;2023-03-01T01:36:15;10.70;;;7.30;;
78778;SDS011;68121;52.404;5.318;2023-03-01T01:38:42;11.73;;;7.82;;
78778;SDS011;68121;52.404;5.318;2023-03-01T01:41:08;11.27;;;7.30;;
78778;SDS011;68121;52.404;5.318;2023-03-01T01:43:38;11.38;;;7.65;;
78778;SDS011;68121;52.404;5.318;2023-03-01T01:49:21;9.90;;;6.35;;
78778;SDS011;68121;52.404;5.318;2023-03-01T01:51:44;11.10;;;7.70;;
78778;SDS011;68121;52.404;5.318;2023-03-01T01:54:16;13.25;;;7.22;;
78778;SDS011;68121;52.404;5.318;2023-03-01T01:57:00;12.77;;;7.28;;
78778;SDS011;68121;52.404;5.318;2023-03-01T01:59:31;12.32;;;7.90;;
78778;SDS011;68121;52.404;5.318;2023-03-01T02:02:00;14.05;;;7.63;;
78778;SDS011;68121;52.404;5.318;2023-03-01T02:04:28;14.30;;;7.85;;
78778;SDS011;68121;52.404;5.318;2023-03-01T02:07:18;11.02;;;7.55;;
78778;SDS011;68121;52.404;5.318;2023-03-01T02:09:49;11.40;;;6.82;;
78778;SDS011;68121;52.404;5.318;2023-03-01T02:12:18;11.95;;;7.10;;
78778;SDS011;68121;52.404;5.318;2023-03-01T02:14:46;11.98;;;7.50;;
78778;SDS011;68121;52.404;5.318;2023-03-01T02:17:13;15.63;;;8.25;;
78778;SDS011;68121;52.404;5.318;2023-03-01T02:19:49;13.88;;;8.18;;
78778;SDS011;68121;52.404;5.318;2023-03-01T02:22:36;12.65;;;7.68;;
78778;SDS011;68121;52.404;5.318;2023-03-01T02:30:35;12.20;;;7.18;;
78778;SDS011;68121;52.404;5.318;2023-03-01T02:33:02;12.02;;;9.00;;
78778;SDS011;68121;52.404;5.318;2023-03-01T02:35:33;14.40;;;8.35;;
78778;SDS011;68121;52.404;5.318;2023-03-01T02:38:02;12.82;;;8.63;;
78778;SDS011;68121;52.404;5.318;2023-03-01T02:40:31;13.70;;;7.75;;
78778;SDS011;68121;52.404;5.318;2023-03-01T02:43:01;12.38;;;7.88;;
78778;SDS011;68121;52.404;5.318;2023-03-01T02:45:31;12.82;;;7.57;;
78778;SDS011;68121;52.404;5.318;2023-03-01T02:47:57;13.02;;;8.60;;
78778;SDS011;68121;52.404;5.318;2023-03-01T02:53:03;14.27;;;7.85;;
78778;SDS011;68121;52.404;5.318;2023-03-01T02:55:48;13.38;;;7.65;;
78778;SDS011;68121;52.404;5.318;2023-03-01T02:58:15;13.38;;;7.68;;
78778;SDS011;68121;52.404;5.318;2023-03-01T03:00:42;15.40;;;8.70;;
78778;SDS011;68121;52.404;5.318;2023-03-01T03:03:12;12.02;;;7.57;;
78778;SDS011;68121;52.404;5.318;2023-03-01T03:05:40;11.88;;;7.30;;
78778;SDS011;68121;52.404;5.318;2023-03-01T03:08:06;12.27;;;6.65;;
78778;SDS011;68121;52.404;5.318;2023-03-01T03:10:34;10.27;;;6.70;;
78778;SDS011;68121;52.404;5.318;2023-03-01T03:13:03;11.75;;;7.18;;
78778;SDS011;68121;52.404;5.318;2023-03-01T03:15:32;11.63;;;7.30;;
78778;SDS011;68121;52.404;5.318;2023-03-01T03:18:02;11.35;;;6.80;;
78778;SDS011;68121;52.404;5.318;2023-03-01T03:20:29;12.18;;;7.35;;
78778;SDS011;68121;52.404;5.318;2023-03-01T03:22:56;10.88;;;7.93;;
78778;SDS011;68121;52.404;5.318;2023-03-01T03:25:24;10.95;;;6.78;;
78778;SDS011;68121;52.404;5.318;2023-03-01T03:27:51;13.65;;;7.47;;
78778;SDS011;68121;52.404;5.318;2023-03-01T03:30:23;13.30;;;7.35;;
78778;SDS011;68121;52.404;5.318;2023-03-01T03:32:51;9.10;;;6.78;;
78778;SDS011;68121;52.404;5.318;2023-03-01T03:37:51;11.57;;;6.68;;
78778;SDS011;68121;52.404;5.318;2023-03-01T03:43:05;11.38;;;6.65;;
78778;SDS011;68121;52.404;5.318;2023-03-01T03:45:32;9.88;;;5.65;;
78778;SDS011;68121;52.404;5.318;2023-03-01T03:47:59;12.38;;;7.47;;
78778;SDS011;68121;52.404;5.318;2023-03-01T03:50:26;12.40;;;7.28;;
78778;SDS011;68121;52.404;5.318;2023-03-01T03:52:52;15.02;;;7.35;;
78778;SDS011;68121;52.404;5.318;2023-03-01T03:55:18;12.98;;;7.30;;
78778;SDS011;68121;52.404;5.318;2023-03-01T03:57:45;10.25;;;6.50;;
78778;SDS011;68121;52.404;5.318;2023-03-01T04:00:20;9.60;;;6.50;;
78778;SDS011;68121;52.404;5.318;2023-03-01T04:02:49;11.07;;;6.18;;
78778;SDS011;68121;52.404;5.318;2023-03-01T04:05:17;10.32;;;6.43;;
78778;SDS011;68121;52.404;5.318;2023-03-01T04:07:44;13.57;;;7.93;;
78778;SDS011;68121;52.404;5.318;2023-03-01T04:10:11;12.65;;;7.55;;
78778;SDS011;68121;52.404;5.318;2023-03-01T04:12:41;12.07;;;6.65;;
78778;SDS011;68121;52.404;5.318;2023-03-01T04:15:08;11.55;;;6.93;;
78778;SDS011;68121;52.404;5.318;2023-03-01T04:17:39;11.85;;;6.85;;
78778;SDS011;68121;52.404;5.318;2023-03-01T04:20:08;11.07;;;6.97;;
78778;SDS011;68121;52.404;5.318;2023-03-01T04:22:39;13.05;;;7.45;;
78778;SDS011;68121;52.404;5.318;2023-03-01T04:25:06;11.80;;;6.53;;
78778;SDS011;68121;52.404;5.318;2023-03-01T04:27:33;14.40;;;7.10;;
78778;SDS011;68121;52.404;5.318;2023-03-01T04:29:59;10.40;;;6.30;;
78778;SDS011;68121;52.404;5.318;2023-03-01T04:32:25;10.48;;;6.35;;
78778;SDS011;68121;52.404;5.318;2023-03-01T04:34:52;11.60;;;6.82;;
78778;SDS011;68121;52.404;5.318;2023-03-01T04:37:18;12.23;;;7.43;;
78778;SDS011;68121;52.404;5.318;2023-03-01T04:39:44;11.55;;;6.90;;
78778;SDS011;68121;52.404;5.318;2023-03-01T04:42:13;14.43;;;7.40;;
78778;SDS011;68121;52.404;5.318;2023-03-01T04:44:40;11.93;;;7.07;;
78778;SDS011;68121;52.404;5.318;2023-03-01T04:47:06;9.57;;;6.45;;
78778;SDS011;68121;52.404;5.318;2023-03-01T04:49:33;12.15;;;7.45;;
78778;SDS011;68121;52.404;5.318;2023-03-01T04:51:59;12.20;;;7.60;;
78778;SDS011;68121;52.404;5.318;2023-03-01T04:54:27;11.25;;;6.85;;
78778;SDS011;68121;52.404;5.318;2023-03-01T04:56:54;12.25;;;7.57;;
78778;SDS011;68121;52.404;5.318;2023-03-01T04:59:20;10.48;;;6.88;;
78778;SDS011;68121;52.404;5.318;2023-03-01T05:01:52;13.27;;;7.55;;
78778;SDS011;68121;52.404;5.318;2023-03-01T05:04:21;12.25;;;7.38;;
78778;SDS011;68121;52.404;5.318;2023-03-01T05:06:48;14.13;;;7.88;;
78778;SDS011;68121;52.404;5.318;2023-03-01T05:09:14;13.48;;;7.97;;
78778;SDS011;68121;52.404;5.318;2023-03-01T05:11:40;11.70;;;6.95;;
78778;SDS011;68121;52.404;5.318;2023-03-01T05:14:07;12.05;;;7.28;;
78778;SDS011;68121;52.404;5.318;2023-03-01T05:16:34;13.05;;;7.10;;
78778;SDS011;68121;52.404;5.318;2023-03-01T05:19:05;16.20;;;7.30;;
78778;SDS011;68121;52.404;5.318;2023-03-01T05:21:39;9.52;;;6.72;;
78778;SDS011;68121;52.404;5.318;2023-03-01T05:24:25;14.75;;;7.72;;
78778;SDS011;68121;52.404;5.318;2023-03-01T05:26:52;11.65;;;7.43;;
78778;SDS011;68121;52.404;5.318;2023-03-01T05:29:22;11.63;;;6.88;;
78778;SDS011;68121;52.404;5.318;2023-03-01T05:31:52;12.98;;;6.85;;
78778;SDS011;68121;52.404;5.318;2023-03-01T05:34:22;13.95;;;7.32;;
78778;SDS011;68121;52.404;5.318;2023-03-01T05:36:49;14.20;;;7.32;;
78778;SDS011;68121;52.404;5.318;2023-03-01T05:39:22;13.98;;;7.75;;
78778;SDS011;68121;52.404;5.318;2023-03-01T05:41:52;14.05;;;7.93;;
78778;SDS011;68121;52.404;5.318;2023-03-01T05:44:20;12.07;;;7.25;;
78778;SDS011;68121;52.404;5.318;2023-03-01T05:46:46;13.93;;;7.93;;
78778;SDS011;68121;52.404;5.318;2023-03-01T05:49:13;12.55;;;7.28;;
78778;SDS011;68121;52.404;5.318;2023-03-01T05:51:40;13.38;;;8.10;;
78778;SDS011;68121;52.404;5.318;2023-03-01T05:54:07;14.02;;;7.43;;
78778;SDS011;68121;52.404;5.318;2023-03-01T05:56:33;15.55;;;7.93;;
78778;SDS011;68121;52.404;5.318;2023-03-01T05:59:00;13.45;;;8.60;;
78778;SDS011;68121;52.404;5.318;2023-03-01T06:01:26;17.02;;;8.40;;
78778;SDS011;68121;52.404;5.318;2023-03-01T06:03:53;16.25;;;8.43;;
78778;SDS011;68121;52.404;5.318;2023-03-01T06:06:19;16.10;;;8.55;;
78778;SDS011;68121;52.404;5.318;2023-03-01T06:08:45;17.55;;;8.98;;
78778;SDS011;68121;52.404;5.318;2023-03-01T06:11:11;16.70;;;8.85;;
78778;SDS011;68121;52.404;5.318;2023-03-01T06:13:37;16.30;;;9.30;;
78778;SDS011;68121;52.404;5.318;2023-03-01T06:16:06;15.85;;;8.55;;
78778;SDS011;68121;52.404;5.318;2023-03-01T06:18:33;15.30;;;8.77;;
78778;SDS011;68121;52.404;5.318;2023-03-01T06:20:59;22.02;;;9.88;;
78778;SDS011;68121;52.404;5.318;2023-03-01T06:23:25;19.50;;;10.75;;
78778;SDS011;68121;52.404;5.318;2023-03-01T06:25:51;27.77;;;10.50;;
78778;SDS011;68121;52.404;5.318;2023-03-01T06:28:17;76.43;;;13.68;;
78778;SDS011;68121;52.404;5.318;2023-03-01T06:30:44;174.32;;;19.73;;
78778;SDS011;68121;52.404;5.318;2023-03-01T06:33:10;187.23;;;20.45;;
78778;SDS011;68121;52.404;5.318;2023-03-01T06:35:36;199.43;;;20.38;;
78778;SDS011;68121;52.404;5.318;2023-03-01T06:38:03;246.90;;;21.70;;
78778;SDS011;68121;52.404;5.318;2023-03-01T06:40:29;91.78;;;17.13;;
78778;SDS011;68121;52.404;5.318;2023-03-01T06:42:56;219.02;;;22.52;;
78778;SDS011;68121;52.404;5.318;2023-03-01T06:45:23;101.93;;;16.08;;
78778;SDS011;68121;52.404;5.318;2023-03-01T06:47:49;170.95;;;19.02;;
78778;SDS011;68121;52.404;5.318;2023-03-01T06:50:16;79.47;;;14.60;;
78778;SDS011;68121;52.404;5.318;2023-03-01T06:52:43;76.60;;;13.77;;
78778;SDS011;68121;52.404;5.318;2023-03-01T06:55:10;80.97;;;15.38;;
78778;SDS011;68121;52.404;5.318;2023-03-01T06:57:37;34.45;;;11.98;;
78778;SDS011;68121;52.404;5.318;2023-03-01T07:00:03;48.35;;;13.35;;
78778;SDS011;68121;52.404;5.318;2023-03-01T07:02:31;35.90;;;11.48;;
78778;SDS011;68121;52.404;5.318;2023-03-01T07:04:57;86.43;;;13.18;;
78778;SDS011;68121;52.404;5.318;2023-03-01T07:07:23;88.78;;;12.98;;
78778;SDS011;68121;52.404;5.318;2023-03-01T07:09:49;41.78;;;12.68;;
78778;SDS011;68121;52.404;5.318;2023-03-01T07:12:15;84.32;;;13.93;;
78778;SDS011;68121;52.404;5.318;2023-03-01T07:14:43;46.35;;;12.40;;
78778;SDS011;68121;52.404;5.318;2023-03-01T07:17:09;40.28;;;10.85;;
78778;SDS011;68121;52.404;5.318;2023-03-01T07:19:35;30.70;;;11.13;;
78778;SDS011;68121;52.404;5.318;2023-03-01T07:22:02;18.30;;;11.38;;
78778;SDS011;68121;52.404;5.318;2023-03-01T07:24:29;23.58;;;10.35;;
78778;SDS011;68121;52.404;5.318;2023-03-01T07:26:55;25.00;;;12.00;;
78778;SDS011;68121;52.404;5.318;2023-03-01T07:29:21;25.15;;;10.75;;
78778;SDS011;68121;52.404;5.318;2023-03-01T07:31:47;29.23;;;10.30;;
78778;SDS011;68121;52.404;5.318;2023-03-01T07:34:13;29.90;;;10.35;;
78778;SDS011;68121;52.404;5.318;2023-03-01T07:36:40;40.83;;;11.25;;
78778;SDS011;68121;52.404;5.318;2023-03-01T07:39:09;51.72;;;12.57;;
78778;SDS011;68121;52.404;5.318;2023-03-01T07:41:36;26.63;;;11.30;;
78778;SDS011;68121;52.404;5.318;2023-03-01T07:44:02;31.45;;;11.85;;
78778;SDS011;68121;52.404;5.318;2023-03-01T07:46:28;21.02;;;11.60;;
78778;SDS011;68121;52.404;5.318;2023-03-01T07:48:54;19.55;;;10.32;;
78778;SDS011;68121;52.404;5.318;2023-03-01T07:51:21;19.45;;;10.50;;
78778;SDS011;68121;52.404;5.318;2023-03-01T07:53:47;21.27;;;10.95;;
78778;SDS011;68121;52.404;5.318;2023-03-01T07:56:14;19.90;;;10.85;;
78778;SDS011;68121;52.404;5.318;2023-03-01T07:58:43;20.75;;;10.80;;
78778;SDS011;68121;52.404;5.318;2023-03-01T08:01:11;15.77;;;9.30;;
78778;SDS011;68121;52.404;5.318;2023-03-01T08:03:39;18.08;;;10.15;;
78778;SDS011;68121;52.404;5.318;2023-03-01T08:06:06;17.77;;;10.35;;
78778;SDS011;68121;52.404;5.318;2023-03-01T08:08:34;18.63;;;10.50;;
78778;SDS011;68121;52.404;5.318;2023-03-01T08:11:02;18.38;;;10.27;;
78778;SDS011;68121;52.404;5.318;2023-03-01T08:13:29;15.93;;;9.95;;
78778;SDS011;68121;52.404;5.318;2023-03-01T08:16:29;14.77;;;9.55;;
78778;SDS011;68121;52.404;5.318;2023-03-01T08:18:48;15.85;;;9.50;;
78778;SDS011;68121;52.404;5.318;2023-03-01T08:21:15;16.17;;;9.32;;
78778;SDS011;68121;52.404;5.318;2023-03-01T08:23:43;16.42;;;9.85;;
78778;SDS011;68121;52.404;5.318;2023-03-01T08:28:37;14.68;;;9.63;;
78778;SDS011;68121;52.404;5.318;2023-03-01T08:34:01;13.32;;;8.65;;
78778;SDS011;68121;52.404;5.318;2023-03-01T08:36:30;14.10;;;8.82;;
78778;SDS011;68121;52.404;5.318;2023-03-01T08:38:58;13.32;;;8.48;;
78778;SDS011;68121;52.404;5.318;2023-03-01T08:41:24;14.98;;;9.73;;
78778;SDS011;68121;52.404;5.318;2023-03-01T08:43:51;13.05;;;8.52;;
78778;SDS011;68121;52.404;5.318;2023-03-01T08:46:18;15.52;;;9.23;;
78778;SDS011;68121;52.404;5.318;2023-03-01T08:48:44;14.88;;;8.93;;
78778;SDS011;68121;52.404;5.318;2023-03-01T08:51:11;11.60;;;7.68;;
78778;SDS011;68121;52.404;5.318;2023-03-01T08:53:41;14.43;;;9.13;;
78778;SDS011;68121;52.404;5.318;2023-03-01T08:56:08;15.15;;;9.57;;
78778;SDS011;68121;52.404;5.318;2023-03-01T08:58:35;13.63;;;8.07;;
78778;SDS011;68121;52.404;5.318;2023-03-01T09:01:09;11.48;;;8.02;;
78778;SDS011;68121;52.404;5.318;2023-03-01T09:03:36;11.38;;;8.27;;
78778;SDS011;68121;52.404;5.318;2023-03-01T09:06:03;12.65;;;8.02;;
78778;SDS011;68121;52.404;5.318;2023-03-01T09:08:30;11.55;;;7.55;;
78778;SDS011;68121;52.404;5.318;2023-03-01T09:11:03;14.00;;;7.40;;
78778;SDS011;68121;52.404;5.318;2023-03-01T09:13:30;11.15;;;6.88;;
78778;SDS011;68121;52.404;5.318;2023-03-01T09:15:57;13.57;;;7.60;;
78778;SDS011;68121;52.404;5.318;2023-03-01T09:18:25;11.55;;;7.00;;
78778;SDS011;68121;52.404;5.318;2023-03-01T09:20:52;9.82;;;6.88;;
78778;SDS011;68121;52.404;5.318;2023-03-01T09:23:20;10.20;;;6.40;;
78778;SDS011;68121;52.404;5.318;2023-03-01T09:25:47;9.70;;;6.60;;
78778;SDS011;68121;52.404;5.318;2023-03-01T09:28:13;14.32;;;7.47;;
78778;SDS011;68121;52.404;5.318;2023-03-01T09:30:39;15.90;;;8.75;;
78778;SDS011;68121;52.404;5.318;2023-03-01T09:33:05;12.32;;;6.85;;
78778;SDS011;68121;52.404;5.318;2023-03-01T09:35:31;16.10;;;8.82;;
78778;SDS011;68121;52.404;5.318;2023-03-01T09:37:57;16.58;;;9.07;;
78778;SDS011;68121;52.404;5.318;2023-03-01T09:40:24;14.45;;;8.38;;
78778;SDS011;68121;52.404;5.318;2023-03-01T09:42:59;17.75;;;9.93;;
78778;SDS011;68121;52.404;5.318;2023-03-01T09:45:34;16.25;;;8.02;;
78778;SDS011;68121;52.404;5.318;2023-03-01T09:48:02;17.52;;;8.80;;
78778;SDS011;68121;52.404;5.318;2023-03-01T09:50:33;16.70;;;9.30;;
78778;SDS011;68121;52.404;5.318;2023-03-01T09:53:09;14.70;;;9.27;;
78778;SDS011;68121;52.404;5.318;2023-03-01T09:55:43;17.60;;;9.63;;
78778;SDS011;68121;52.404;5.318;2023-03-01T10:00:53;19.63;;;9.63;;
78778;SDS011;68121;52.404;5.318;2023-03-01T10:03:37;19.85;;;9.13;;
78778;SDS011;68121;52.404;5.318;2023-03-01T10:06:13;19.60;;;9.95;;
78778;SDS011;68121;52.404;5.318;2023-03-01T10:08:53;18.23;;;9.52;;
78778;SDS011;68121;52.404;5.318;2023-03-01T10:11:31;20.98;;;9.70;;
78778;SDS011;68121;52.404;5.318;2023-03-01T10:14:02;19.00;;;9.73;;
78778;SDS011;68121;52.404;5.318;2023-03-01T10:16:34;20.17;;;9.75;;
78778;SDS011;68121;52.404;5.318;2023-03-01T10:22:16;14.20;;;8.20;;
78778;SDS011;68121;52.404;5.318;2023-03-01T10:24:49;15.85;;;9.02;;
78778;SDS011;68121;52.404;5.318;2023-03-01T10:27:19;12.32;;;7.38;;
78778;SDS011;68121;52.404;5.318;2023-03-01T10:32:42;10.07;;;5.70;;
78778;SDS011;68121;52.404;5.318;2023-03-01T10:35:20;9.15;;;5.60;;
78778;SDS011;68121;52.404;5.318;2023-03-01T10:40:34;10.57;;;5.47;;
78778;SDS011;68121;52.404;5.318;2023-03-01T10:43:02;9.40;;;5.53;;
78778;SDS011;68121;52.404;5.318;2023-03-01T10:48:23;9.48;;;4.97;;
78778;SDS011;68121;52.404;5.318;2023-03-01T10:53:27;8.23;;;4.43;;
78778;SDS011;68121;52.404;5.318;2023-03-01T10:58:35;7.88;;;4.25;;
78778;SDS011;68121;52.404;5.318;2023-03-01T11:01:05;7.50;;;4.03;;
78778;SDS011;68121;52.404;5.318;2023-03-01T11:04:09;7.72;;;3.83;;
78778;SDS011;68121;52.404;5.318;2023-03-01T11:06:38;10.02;;;3.10;;
78778;SDS011;68121;52.404;5.318;2023-03-01T11:12:05;5.65;;;3.40;;
78778;SDS011;68121;52.404;5.318;2023-03-01T11:14:45;6.43;;;3.90;;
78778;SDS011;68121;52.404;5.318;2023-03-01T11:17:24;6.22;;;3.33;;
78778;SDS011;68121;52.404;5.318;2023-03-01T11:22:44;7.47;;;3.70;;
78778;SDS011;68121;52.404;5.318;2023-03-01T11:25:35;7.22;;;3.10;;
78778;SDS011;68121;52.404;5.318;2023-03-01T11:28:04;8.45;;;3.15;;
78778;SDS011;68121;52.404;5.318;2023-03-01T11:30:36;4.78;;;2.42;;
78778;SDS011;68121;52.404;5.318;2023-03-01T11:36:05;5.90;;;3.28;;
78778;SDS011;68121;52.404;5.318;2023-03-01T11:38:48;6.65;;;3.53;;
78778;SDS011;68121;52.404;5.318;2023-03-01T11:41:15;5.13;;;3.10;;
78778;SDS011;68121;52.404;5.318;2023-03-01T11:51:38;7.63;;;3.83;;
78778;SDS011;68121;52.404;5.318;2023-03-01T11:54:27;6.13;;;3.35;;
78778;SDS011;68121;52.404;5.318;2023-03-01T11:57:17;6.00;;;3.55;;
78778;SDS011;68121;52.404;5.318;2023-03-01T12:05:42;9.98;;;5.40;;
78778;SDS011;68121;52.404;5.318;2023-03-01T12:22:31;7.13;;;3.40;;
78778;SDS011;68121;52.404;5.318;2023-03-01T12:32:43;7.10;;;4.63;;
78778;SDS011;68121;52.404;5.318;2023-03-01T12:40:45;6.93;;;4.03;;
78778;SDS011;68121;52.404;5.318;2023-03-01T12:43:22;9.57;;;4.57;;
78778;SDS011;68121;52.404;5.318;2023-03-01T12:46:10;7.93;;;3.90;;
78778;SDS011;68121;52.404;5.318;2023-03-01T12:51:56;5.35;;;3.83;;
78778;SDS011;68121;52.404;5.318;2023-03-01T12:54:38;7.22;;;3.65;;
78778;SDS011;68121;52.404;5.318;2023-03-01T13:00:05;5.68;;;3.35;;
78778;SDS011;68121;52.404;5.318;2023-03-01T13:03:00;5.50;;;3.10;;
78778;SDS011;68121;52.404;5.318;2023-03-01T13:11:33;7.43;;;3.92;;
78778;SDS011;68121;52.404;5.318;2023-03-01T13:16:51;7.95;;;3.83;;
78778;SDS011;68121;52.404;5.318;2023-03-01T13:19:19;5.82;;;3.28;;
78778;SDS011;68121;52.404;5.318;2023-03-01T13:21:48;5.53;;;3.80;;
78778;SDS011;68121;52.404;5.318;2023-03-01T13:32:23;5.82;;;4.20;;
78778;SDS011;68121;52.404;5.318;2023-03-01T13:34:57;6.60;;;3.90;;
78778;SDS011;68121;52.404;5.318;2023-03-01T13:37:25;5.97;;;3.47;;
78778;SDS011;68121;52.404;5.318;2023-03-01T13:39:55;6.75;;;3.45;;
78778;SDS011;68121;52.404;5.318;2023-03-01T13:42:32;4.90;;;3.00;;
78778;SDS011;68121;52.404;5.318;2023-03-01T13:44:59;6.97;;;3.55;;
78778;SDS011;68121;52.404;5.318;2023-03-01T13:47:26;6.80;;;4.03;;
78778;SDS011;68121;52.404;5.318;2023-03-01T13:49:57;7.07;;;4.07;;
78778;SDS011;68121;52.404;5.318;2023-03-01T13:52:41;7.78;;;4.10;;
78778;SDS011;68121;52.404;5.318;2023-03-01T13:55:18;5.30;;;3.22;;
78778;SDS011;68121;52.404;5.318;2023-03-01T13:57:49;5.47;;;3.63;;
78778;SDS011;68121;52.404;5.318;2023-03-01T14:00:27;4.63;;;3.40;;
78778;SDS011;68121;52.404;5.318;2023-03-01T14:05:41;4.30;;;2.70;;
78778;SDS011;68121;52.404;5.318;2023-03-01T14:08:18;5.63;;;3.72;;
78778;SDS011;68121;52.404;5.318;2023-03-01T14:19:37;7.90;;;3.85;;
78778;SDS011;68121;52.404;5.318;2023-03-01T14:22:05;7.97;;;3.38;;
78778;SDS011;68121;52.404;5.318;2023-03-01T14:24:55;7.70;;;3.70;;
78778;SDS011;68121;52.404;5.318;2023-03-01T14:27:26;6.63;;;3.72;;
78778;SDS011;68121;52.404;5.318;2023-03-01T14:30:00;5.60;;;3.70;;
78778;SDS011;68121;52.404;5.318;2023-03-01T14:32:29;7.95;;;3.53;;
78778;SDS011;68121;52.404;5.318;2023-03-01T14:34:58;6.22;;;3.17;;
78778;SDS011;68121;52.404;5.318;2023-03-01T14:37:27;6.65;;;3.17;;
78778;SDS011;68121;52.404;5.318;2023-03-01T14:39:55;4.72;;;3.20;;
78778;SDS011;68121;52.404;5.318;2023-03-01T14:42:22;4.82;;;3.50;;
78778;SDS011;68121;52.404;5.318;2023-03-01T14:44:51;6.28;;;3.50;;
78778;SDS011;68121;52.404;5.318;2023-03-01T14:47:23;5.32;;;3.60;;
78778;SDS011;68121;52.404;5.318;2023-03-01T14:49:56;7.78;;;3.72;;
78778;SDS011;68121;52.404;5.318;2023-03-01T14:52:27;6.53;;;3.80;;
78778;SDS011;68121;52.404;5.318;2023-03-01T14:55:06;6.30;;;3.58;;
78778;SDS011;68121;52.404;5.318;2023-03-01T14:58:10;8.68;;;3.85;;
78778;SDS011;68121;52.404;5.318;2023-03-01T15:00:39;5.93;;;3.78;;
78778;SDS011;68121;52.404;5.318;2023-03-01T15:03:36;5.18;;;3.00;;
78778;SDS011;68121;52.404;5.318;2023-03-01T15:06:09;6.13;;;3.47;;
78778;SDS011;68121;52.404;5.318;2023-03-01T15:08:38;5.70;;;3.28;;
78778;SDS011;68121;52.404;5.318;2023-03-01T15:11:21;6.28;;;3.90;;
78778;SDS011;68121;52.404;5.318;2023-03-01T15:13:52;4.90;;;3.10;;
78778;SDS011;68121;52.404;5.318;2023-03-01T15:16:19;6.10;;;3.55;;
78778;SDS011;68121;52.404;5.318;2023-03-01T15:18:51;6.28;;;3.13;;
78778;SDS011;68121;52.404;5.318;2023-03-01T15:21:21;5.00;;;3.35;;
78778;SDS011;68121;52.404;5.318;2023-03-01T15:23:50;6.30;;;2.63;;
78778;SDS011;68121;52.404;5.318;2023-03-01T15:26:41;6.05;;;2.95;;
78778;SDS011;68121;52.404;5.318;2023-03-01T15:29:11;4.15;;;2.50;;
78778;SDS011;68121;52.404;5.318;2023-03-01T15:31:42;5.70;;;3.45;;
78778;SDS011;68121;52.404;5.318;2023-03-01T15:34:28;6.65;;;3.05;;
78778;SDS011;68121;52.404;5.318;2023-03-01T15:36:59;7.25;;;3.25;;
78778;SDS011;68121;52.404;5.318;2023-03-01T15:41:56;6.07;;;3.38;;
78778;SDS011;68121;52.404;5.318;2023-03-01T15:44:27;5.40;;;3.40;;
78778;SDS011;68121;52.404;5.318;2023-03-01T15:46:59;5.97;;;3.28;;
78778;SDS011;68121;52.404;5.318;2023-03-01T15:51:57;5.00;;;2.90;;
78778;SDS011;68121;52.404;5.318;2023-03-01T15:54:24;6.57;;;3.33;;
78778;SDS011;68121;52.404;5.318;2023-03-01T15:56:51;4.80;;;3.17;;
78778;SDS011;68121;52.404;5.318;2023-03-01T15:59:17;6.18;;;3.85;;
78778;SDS011;68121;52.404;5.318;2023-03-01T16:01:44;6.65;;;3.60;;
78778;SDS011;68121;52.404;5.318;2023-03-01T16:04:11;5.85;;;3.30;;
78778;SDS011;68121;52.404;5.318;2023-03-01T16:06:41;8.40;;;3.40;;
78778;SDS011;68121;52.404;5.318;2023-03-01T16:09:07;5.32;;;3.10;;
78778;SDS011;68121;52.404;5.318;2023-03-01T16:11:35;4.32;;;2.88;;
78778;SDS011;68121;52.404;5.318;2023-03-01T16:14:02;6.15;;;2.90;;
78778;SDS011;68121;52.404;5.318;2023-03-01T16:16:28;7.45;;;3.90;;
78778;SDS011;68121;52.404;5.318;2023-03-01T16:18:54;4.72;;;3.45;;
78778;SDS011;68121;52.404;5.318;2023-03-01T16:21:22;5.65;;;3.30;;
78778;SDS011;68121;52.404;5.318;2023-03-01T16:23:49;6.47;;;3.80;;
78778;SDS011;68121;52.404;5.318;2023-03-01T16:26:17;6.47;;;3.45;;
78778;SDS011;68121;52.404;5.318;2023-03-01T16:28:44;7.13;;;3.30;;
78778;SDS011;68121;52.404;5.318;2023-03-01T16:31:11;4.68;;;3.13;;
78778;SDS011;68121;52.404;5.318;2023-03-01T16:33:42;7.85;;;3.88;;
78778;SDS011;68121;52.404;5.318;2023-03-01T16:36:15;7.80;;;3.75;;
78778;SDS011;68121;52.404;5.318;2023-03-01T16:38:43;7.32;;;3.67;;
78778;SDS011;68121;52.404;5.318;2023-03-01T16:41:11;8.02;;;4.00;;
78778;SDS011;68121;52.404;5.318;2023-03-01T16:43:41;8.10;;;4.68;;
78778;SDS011;68121;52.404;5.318;2023-03-01T16:46:12;5.93;;;2.97;;
78778;SDS011;68121;52.404;5.318;2023-03-01T16:48:39;6.95;;;4.13;;
78778;SDS011;68121;52.404;5.318;2023-03-01T16:51:06;6.63;;;3.75;;
78778;SDS011;68121;52.404;5.318;2023-03-01T16:53:35;5.20;;;3.45;;
78778;SDS011;68121;52.404;5.318;2023-03-01T16:56:04;6.95;;;3.35;;
78778;SDS011;68121;52.404;5.318;2023-03-01T16:58:33;4.85;;;3.45;;
78778;SDS011;68121;52.404;5.318;2023-03-01T17:01:04;8.60;;;3.38;;
78778;SDS011;68121;52.404;5.318;2023-03-01T17:03:36;6.72;;;3.70;;
78778;SDS011;68121;52.404;5.318;2023-03-01T17:06:07;4.82;;;3.35;;